Time,TemperatureF,DewpointF,PressureIn,WindDirection,WindDirectionDegrees,WindSpeedMPH,WindSpeedGustMPH,Humidity,HourlyPrecipIn,Conditions,Clouds,dailyrainin,SoftwareType,DateUTC
2013-02-11 00:13:00,54.6,54.0,30.06,South,172,11.0,-999.0,96,-99.99,,,0.96,weatherlink.com 1.10,2013-02-11 06:13:00,
2013-02-11 00:30:00,54.8,54.0,30.04,South,182,9.0,-999.0,96,-99.99,,,0.96,weatherlink.com 1.10,2013-02-11 06:30:00,
2013-02-11 00:46:00,54.7,54.0,30.05,SSW,195,3.0,-999.0,96,-99.99,,,0.96,weatherlink.com 1.10,2013-02-11 06:46:00,
2013-02-11 01:03:00,54.5,53.0,30.05,South,185,6.0,-999.0,96,-99.99,,,0.96,weatherlink.com 1.10,2013-02-11 07:03:00,
2013-02-11 01:20:00,54.4,53.0,30.06,SSE,160,0.0,-999.0,96,-99.99,,,0.96,weatherlink.com 1.10,2013-02-11 07:20:00,
2013-02-11 01:36:00,54.4,53.0,30.09,SW,215,0.0,-999.0,96,-99.99,,,0.96,weatherlink.com 1.10,2013-02-11 07:36:00,
2013-02-11 02:10:00,54.2,53.0,30.10,South,189,0.0,-999.0,96,-99.99,,,0.99,weatherlink.com 1.10,2013-02-11 08:10:00,
2013-02-11 02:27:00,54.2,53.0,30.09,SW,228,0.0,-999.0,96,-99.99,,,1.00,weatherlink.com 1.10,2013-02-11 08:27:00,
2013-02-11 02:42:00,54.2,53.0,30.09,South,190,10.0,-999.0,96,-99.99,,,1.02,weatherlink.com 1.10,2013-02-11 08:42:00,
2013-02-11 02:59:00,54.2,53.0,30.08,SW,216,0.0,-999.0,96,-99.99,,,1.02,weatherlink.com 1.10,2013-02-11 08:59:00,
2013-02-11 03:16:00,53.9,53.0,30.06,South,182,4.0,-999.0,97,-99.99,,,1.02,weatherlink.com 1.10,2013-02-11 09:16:00,
2013-02-11 03:33:00,53.7,53.0,30.07,SSW,193,2.0,-999.0,97,-99.99,,,1.03,weatherlink.com 1.10,2013-02-11 09:33:00,
2013-02-11 03:49:00,53.4,53.0,30.07,South,177,0.0,-999.0,97,-99.99,,,1.04,weatherlink.com 1.10,2013-02-11 09:49:00,
2013-02-11 04:06:00,53.6,53.0,30.08,NNE,15,0.0,-999.0,97,-99.99,,,1.05,weatherlink.com 1.10,2013-02-11 10:06:00,
2013-02-11 04:23:00,53.7,53.0,30.08,NNE,15,0.0,-999.0,97,-99.99,,,1.08,weatherlink.com 1.10,2013-02-11 10:23:00,
2013-02-11 04:39:00,53.8,53.0,30.08,NNE,15,0.0,-999.0,97,-99.99,,,1.10,weatherlink.com 1.10,2013-02-11 10:39:00,
2013-02-11 04:55:00,53.9,53.0,30.10,NNE,15,0.0,-999.0,97,-99.99,,,1.12,weatherlink.com 1.10,2013-02-11 10:55:00,
2013-02-11 05:12:00,54.4,54.0,30.10,WSW,255,2.0,-999.0,97,-99.99,,,0.00,weatherlink.com 1.10,2013-02-11 11:12:00,
2013-02-11 05:29:00,54.3,54.0,30.10,West,261,0.0,-999.0,97,-99.99,,,0.00,weatherlink.com 1.10,2013-02-11 11:29:00,
2013-02-11 05:45:00,54.2,53.0,30.10,West,261,0.0,-999.0,97,-99.99,,,0.00,weatherlink.com 1.10,2013-02-11 11:45:00,
2013-02-11 06:02:00,54.6,54.0,30.11,West,261,0.0,-999.0,97,-99.99,,,0.00,weatherlink.com 1.10,2013-02-11 12:02:00,
2013-02-11 06:18:00,54.7,54.0,30.12,West,262,0.0,-999.0,97,-99.99,,,0.00,weatherlink.com 1.10,2013-02-11 12:18:00,
2013-02-11 06:34:00,55.0,54.0,30.11,West,280,0.0,-999.0,97,-99.99,,,0.00,weatherlink.com 1.10,2013-02-11 12:34:00,
2013-02-11 06:49:00,54.9,54.0,30.10,West,280,0.0,-999.0,97,-99.99,,,0.00,weatherlink.com 1.10,2013-02-11 12:49:00,
2013-02-11 07:04:00,54.8,54.0,30.11,NW,317,0.0,-999.0,97,-99.99,,,0.00,weatherlink.com 1.10,2013-02-11 13:04:00,
2013-02-11 07:19:00,54.8,54.0,30.13,NW,317,2.0,-999.0,96,-99.99,,,0.00,weatherlink.com 1.10,2013-02-11 13:19:00,
2013-02-11 07:35:00,54.5,53.0,30.14,NW,314,0.0,-999.0,96,-99.99,,,0.00,weatherlink.com 1.10,2013-02-11 13:35:00,
2013-02-11 07:51:00,54.2,53.0,30.14,NW,316,0.0,-999.0,95,-99.99,,,0.00,weatherlink.com 1.10,2013-02-11 13:51:00,
2013-02-11 08:05:00,54.1,53.0,30.14,WNW,291,1.0,-999.0,94,-99.99,,,0.00,weatherlink.com 1.10,2013-02-11 14:05:00,
2013-02-11 08:20:00,54.0,52.0,30.16,NW,309,0.0,-999.0,93,-99.99,,,0.00,weatherlink.com 1.10,2013-02-11 14:20:00,
2013-02-11 08:34:00,53.9,52.0,30.18,NNW,333,0.0,-999.0,92,-99.99,,,0.00,weatherlink.com 1.10,2013-02-11 14:34:00,
2013-02-11 08:50:00,53.7,51.0,30.17,NW,319,0.0,-999.0,91,-99.99,,,0.00,weatherlink.com 1.10,2013-02-11 14:50:00,
2013-02-11 09:05:00,53.5,51.0,30.18,NNW,327,0.0,-999.0,90,-99.99,,,0.00,weatherlink.com 1.10,2013-02-11 15:05:00,
2013-02-11 09:24:00,53.5,50.0,30.15,NNW,327,0.0,-999.0,89,-99.99,,,0.00,weatherlink.com 1.10,2013-02-11 15:24:00,
2013-02-11 09:35:00,53.6,49.0,30.16,NNW,327,0.0,-999.0,85,-99.99,,,0.00,weatherlink.com 1.10,2013-02-11 15:35:00,
2013-02-11 09:50:00,53.5,49.0,30.16,NNW,327,0.0,-999.0,84,-99.99,,,0.00,weatherlink.com 1.10,2013-02-11 15:50:00,
2013-02-11 10:05:00,53.5,49.0,30.16,NNW,327,0.0,-999.0,83,-99.99,,,0.00,weatherlink.com 1.10,2013-02-11 16:05:00,
2013-02-11 10:20:00,53.5,49.0,30.16,NNW,327,0.0,-999.0,83,-99.99,,,0.00,weatherlink.com 1.10,2013-02-11 16:20:00,
2013-02-11 10:35:00,53.5,49.0,30.19,NW,308,6.0,-999.0,84,-99.99,,,0.00,weatherlink.com 1.10,2013-02-11 16:35:00,
2013-02-11 10:50:00,53.3,49.0,30.20,NW,313,5.0,-999.0,84,-99.99,,,0.00,weatherlink.com 1.10,2013-02-11 16:50:00,
2013-02-11 11:05:00,53.5,48.0,30.19,NW,306,4.0,-999.0,82,-99.99,,,0.00,weatherlink.com 1.10,2013-02-11 17:05:00,
2013-02-11 11:20:00,53.7,49.0,30.19,NW,311,0.0,-999.0,84,-99.99,,,0.00,weatherlink.com 1.10,2013-02-11 17:20:00,
2013-02-11 11:35:00,53.6,49.0,30.19,WNW,299,3.0,-999.0,84,-99.99,,,0.00,weatherlink.com 1.10,2013-02-11 17:35:00,
2013-02-11 11:50:00,53.5,48.0,30.19,WNW,298,2.0,-999.0,82,-99.99,,,0.00,weatherlink.com 1.10,2013-02-11 17:50:00,
2013-02-11 12:05:00,53.5,47.0,30.17,WNW,286,2.0,-999.0,79,-99.99,,,0.00,weatherlink.com 1.10,2013-02-11 18:05:00,
2013-02-11 12:20:00,53.5,46.0,30.17,WNW,293,0.0,-999.0,77,-99.99,,,0.00,weatherlink.com 1.10,2013-02-11 18:20:00,
2013-02-11 12:35:00,53.0,46.0,30.16,West,261,2.0,-999.0,77,-99.99,,,0.00,weatherlink.com 1.10,2013-02-11 18:35:00,
2013-02-11 12:50:00,52.8,46.0,30.16,WNW,302,1.0,-999.0,77,-99.99,,,0.00,weatherlink.com 1.10,2013-02-11 18:50:00,
2013-02-11 13:05:00,52.2,43.0,30.17,NNW,329,5.0,-999.0,70,-99.99,,,0.00,weatherlink.com 1.10,2013-02-11 19:05:00,
2013-02-11 13:21:00,51.7,41.0,30.16,WNW,295,0.0,-999.0,67,-99.99,,,0.00,weatherlink.com 1.10,2013-02-11 19:21:00,
2013-02-11 13:38:00,51.5,40.0,30.16,NW,321,2.0,-999.0,65,-99.99,,,0.00,weatherlink.com 1.10,2013-02-11 19:38:00,
2013-02-11 13:55:00,51.1,41.0,30.16,North,360,0.0,-999.0,69,-99.99,,,0.00,weatherlink.com 1.10,2013-02-11 19:55:00,
2013-02-11 14:10:00,51.1,42.0,30.17,WNW,291,0.0,-999.0,72,-99.99,,,0.00,weatherlink.com 1.10,2013-02-11 20:10:00,
2013-02-11 14:27:00,51.2,43.0,30.15,WNW,292,0.0,-999.0,73,-99.99,,,0.00,weatherlink.com 1.10,2013-02-11 20:27:00,
2013-02-11 14:44:00,51.0,42.0,30.16,WNW,293,3.0,-999.0,72,-99.99,,,0.00,weatherlink.com 1.10,2013-02-11 20:44:00,
2013-02-11 15:00:00,50.9,42.0,30.15,NW,304,0.0,-999.0,71,-99.99,,,0.00,weatherlink.com 1.10,2013-02-11 21:00:00,
2013-02-11 15:17:00,50.9,42.0,30.14,NW,320,4.0,-999.0,72,-99.99,,,0.00,weatherlink.com 1.10,2013-02-11 21:17:00,
2013-02-11 15:34:00,50.9,42.0,30.14,NW,326,1.0,-999.0,72,-99.99,,,0.00,weatherlink.com 1.10,2013-02-11 21:34:00,
2013-02-11 15:50:00,50.8,42.0,30.14,NW,321,0.0,-999.0,73,-99.99,,,0.00,weatherlink.com 1.10,2013-02-11 21:50:00,
2013-02-11 16:07:00,50.6,43.0,30.15,NW,321,0.0,-999.0,74,-99.99,,,0.00,weatherlink.com 1.10,2013-02-11 22:07:00,
2013-02-11 16:23:00,50.5,43.0,30.15,NW,316,0.0,-999.0,74,-99.99,,,0.00,weatherlink.com 1.10,2013-02-11 22:23:00,
2013-02-11 16:40:00,50.3,43.0,30.14,NW,316,0.0,-999.0,75,-99.99,,,0.00,weatherlink.com 1.10,2013-02-11 22:40:00,
2013-02-11 16:56:00,49.9,43.0,30.13,NW,316,0.0,-999.0,76,-99.99,,,0.00,weatherlink.com 1.10,2013-02-11 22:56:00,
2013-02-11 17:11:00,49.5,42.0,30.14,NW,316,0.0,-999.0,76,-99.99,,,0.01,weatherlink.com 1.10,2013-02-11 23:11:00,
2013-02-11 17:26:00,49.2,42.0,30.15,NW,316,0.0,-999.0,76,-99.99,,,0.01,weatherlink.com 1.10,2013-02-11 23:26:00,
2013-02-11 17:41:00,48.8,42.0,30.14,NW,316,0.0,-999.0,76,-99.99,,,0.01,weatherlink.com 1.10,2013-02-11 23:41:00,
2013-02-11 17:56:00,48.3,42.0,30.16,NW,316,0.0,-999.0,79,-99.99,,,0.01,weatherlink.com 1.10,2013-02-11 23:56:00,
2013-02-11 18:11:00,48.4,41.0,30.16,NW,316,0.0,-999.0,75,-99.99,,,0.01,weatherlink.com 1.10,2013-02-12 00:11:00,
2013-02-11 18:26:00,48.1,41.0,30.15,NW,316,0.0,-999.0,76,-99.99,,,0.01,weatherlink.com 1.10,2013-02-12 00:26:00,
2013-02-11 18:41:00,47.8,41.0,30.15,NW,316,0.0,-999.0,77,-99.99,,,0.01,weatherlink.com 1.10,2013-02-12 00:41:00,
2013-02-11 18:56:00,47.7,40.0,30.15,NW,316,1.0,-999.0,76,-99.99,,,0.01,weatherlink.com 1.10,2013-02-12 00:56:00,
2013-02-11 19:12:00,47.5,40.0,30.14,NW,316,0.0,-999.0,76,-99.99,,,0.01,weatherlink.com 1.10,2013-02-12 01:12:00,
2013-02-11 19:26:00,47.3,39.0,30.15,NW,316,0.0,-999.0,74,-99.99,,,0.01,weatherlink.com 1.10,2013-02-12 01:26:00,
2013-02-11 19:41:00,46.9,40.0,30.16,NW,316,0.0,-999.0,77,-99.99,,,0.01,weatherlink.com 1.10,2013-02-12 01:41:00,
2013-02-11 19:56:00,46.8,40.0,30.15,NW,316,0.0,-999.0,78,-99.99,,,0.01,weatherlink.com 1.10,2013-02-12 01:56:00,
2013-02-11 20:11:00,46.7,39.0,30.17,NW,316,0.0,-999.0,75,-99.99,,,0.01,weatherlink.com 1.10,2013-02-12 02:11:00,
2013-02-11 20:26:00,46.8,37.0,30.16,NW,316,2.0,-999.0,68,-99.99,,,0.01,weatherlink.com 1.10,2013-02-12 02:26:00,
2013-02-11 20:41:00,46.8,37.0,30.16,NW,316,0.0,-999.0,68,-99.99,,,0.01,weatherlink.com 1.10,2013-02-12 02:41:00,
2013-02-11 20:56:00,45.8,39.0,30.18,NW,315,0.0,-999.0,78,-99.99,,,0.01,weatherlink.com 1.10,2013-02-12 02:56:00,
2013-02-11 21:11:00,45.9,36.0,30.21,NW,315,0.0,-999.0,69,-99.99,,,0.01,weatherlink.com 1.10,2013-02-12 03:11:00,
2013-02-11 21:27:00,45.9,38.0,30.20,NW,312,0.0,-999.0,74,-99.99,,,0.01,weatherlink.com 1.10,2013-02-12 03:27:00,
2013-02-11 21:42:00,45.9,37.0,30.18,NW,312,3.0,-999.0,71,-99.99,,,0.01,weatherlink.com 1.10,2013-02-12 03:42:00,
2013-02-11 21:57:00,44.8,38.0,30.18,NW,312,0.0,-999.0,76,-99.99,,,0.01,weatherlink.com 1.10,2013-02-12 03:57:00,
2013-02-11 22:12:00,44.1,38.0,30.18,NW,312,0.0,-999.0,80,-99.99,,,0.01,weatherlink.com 1.10,2013-02-12 04:12:00,
2013-02-11 22:27:00,44.0,38.0,30.18,NW,312,0.0,-999.0,79,-99.99,,,0.01,weatherlink.com 1.10,2013-02-12 04:27:00,
2013-02-11 22:42:00,44.4,37.0,30.18,NW,312,0.0,-999.0,76,-99.99,,,0.01,weatherlink.com 1.10,2013-02-12 04:42:00,
2013-02-11 22:57:00,45.3,37.0,30.17,NW,313,0.0,-999.0,72,-99.99,,,0.01,weatherlink.com 1.10,2013-02-12 04:57:00,
2013-02-11 23:12:00,45.4,37.0,30.19,NW,313,0.0,-999.0,72,-99.99,,,0.01,weatherlink.com 1.10,2013-02-12 05:12:00,
2013-02-11 23:42:00,44.7,38.0,30.19,NW,313,0.0,-999.0,77,-99.99,,,0.01,weatherlink.com 1.10,2013-02-12 05:42:00,
2013-02-11 23:57:00,44.6,37.0,30.18,NW,315,0.0,-999.0,76,-99.99,,,0.01,weatherlink.com 1.10,2013-02-12 05:57:00,